SAEZ/EZE METAR and TAF weather

Enter ICAO airport designator
Station Type Date Time Source
SAEZ METAR 2021/10/20 07:00 UTC NOAA

SAEZ 200700Z 12003KT 8000 SCT011 11/10 Q1019 NOSIG


Station Type Date Time Source
SAEZ Decoded METAR 2021/10/20 07:00 UTC NOAA

Ezeiza Aerodrome, Argentina (SAEZ) 34-49S 058-32W 20M
Oct 20, 2021 - 03:00 AM EDT / 2021.10.20 0700 UTC
Wind: from the ESE (120 degrees) at 3 MPH (3 KT):0
Visibility: 4 mile(s):0
Sky conditions: partly cloudy
Temperature: 51 F (11 C)
Dew Point: 50 F (10 C)
Relative Humidity: 93%
Pressure (altimeter): 30.09 in. Hg (1019 hPa)
ob: SAEZ 200700Z 12003KT 8000 SCT011 11/10 Q1019 NOSIG
cycle: 7

Station Type Date Time Source
SAEZ TAF 2021/10/20 06:06 UTC NOAA

TAF TAF SAEZ 200500Z 2006/2106 VRB03KT 9000 NSC TX28/2018Z TN09/2009Z
BECMG 2007/2008 VRB03KT 3000 MIFG BR NSC
TEMPO 2008/2012 0800 BCFG NSC
BECMG 2012/2014 36010KT CAVOK
TEMPO 2020/2101 07015G25KT
BECMG 2101/2103 09010KT

Example: see airport list